createdAt,value
2023-05-01T00:01:21.247Z,10.89
2023-05-01T00:03:50.598Z,10.83
2023-05-01T00:06:19.806Z,10.84
2023-05-01T00:08:49.370Z,10.85
2023-05-01T00:11:19.916Z,10.81
2023-05-01T00:13:49.036Z,10.64
2023-05-01T00:16:18.326Z,10.52
2023-05-01T00:18:47.516Z,10.48
2023-05-01T00:21:17.150Z,10.45
2023-05-01T00:23:46.344Z,10.39
2023-05-01T00:26:15.503Z,10.35
2023-05-01T00:28:50.881Z,10.26
2023-05-01T00:31:20.163Z,10.19
2023-05-01T00:33:49.289Z,10.14
2023-05-01T00:36:18.366Z,10.08
2023-05-01T00:38:47.870Z,10.16
2023-05-01T00:41:17.529Z,10.22
2023-05-01T00:43:47.016Z,10.26
2023-05-01T00:46:18.565Z,10.12
2023-05-01T00:48:47.678Z,9.97
2023-05-01T00:51:17.125Z,9.94
2023-05-01T00:53:46.959Z,9.92
2023-05-01T00:56:17.257Z,9.96
2023-05-01T00:58:48.670Z,9.95
2023-05-01T01:01:19.440Z,9.95
2023-05-01T01:03:48.652Z,9.95
2023-05-01T01:06:26.126Z,9.89
2023-05-01T01:09:08.447Z,9.96
2023-05-01T01:11:48.938Z,9.97
2023-05-01T01:14:22.146Z,9.89
2023-05-01T01:16:59.488Z,9.95
2023-05-01T01:20:02.574Z,9.88
2023-05-01T01:22:36.898Z,9.94
2023-05-01T01:25:30.247Z,9.92
2023-05-01T01:28:26.193Z,9.80
2023-05-01T01:31:19.237Z,9.71
2023-05-01T01:34:04.488Z,9.63
2023-05-01T01:36:40.780Z,9.58
2023-05-01T01:39:16.516Z,9.52
2023-05-01T01:41:51.815Z,9.39
2023-05-01T01:44:27.219Z,9.33
2023-05-01T01:46:56.635Z,9.29
2023-05-01T01:49:29.409Z,9.26
2023-05-01T01:52:00.613Z,9.25
2023-05-01T01:54:34.862Z,9.21
2023-05-01T01:57:06.565Z,9.13
2023-05-01T01:59:36.991Z,9.03
2023-05-01T02:02:07.453Z,8.95
2023-05-01T02:04:38.708Z,8.91
2023-05-01T02:07:09.635Z,8.92
2023-05-01T02:09:40.244Z,8.87
2023-05-01T02:12:11.566Z,8.87
2023-05-01T02:14:42.504Z,8.71
2023-05-01T02:17:12.097Z,8.47
2023-05-01T02:19:45.722Z,8.44
2023-05-01T02:22:17.356Z,8.40
2023-05-01T02:24:49.080Z,8.36
2023-05-01T02:27:22.813Z,8.32
2023-05-01T02:29:53.927Z,8.26
2023-05-01T02:32:23.290Z,8.31
2023-05-01T02:34:54.139Z,8.30
2023-05-01T02:37:23.666Z,8.32
2023-05-01T02:39:52.853Z,8.27
2023-05-01T02:42:25.631Z,8.29
2023-05-01T02:44:58.995Z,8.28
2023-05-01T02:47:30.367Z,8.30
2023-05-01T02:50:03.641Z,8.35
2023-05-01T02:52:34.121Z,8.45
2023-05-01T02:55:23.779Z,8.55
2023-05-01T02:57:53.071Z,8.53
2023-05-01T03:00:23.741Z,8.64
2023-05-01T03:02:52.882Z,8.65
2023-05-01T03:05:23.562Z,8.67
2023-05-01T03:07:52.650Z,8.68
2023-05-01T03:10:21.857Z,8.61
2023-05-01T03:12:51.000Z,8.55
2023-05-01T03:15:20.512Z,8.42
2023-05-01T03:17:49.633Z,8.32
2023-05-01T03:20:18.821Z,8.27
2023-05-01T03:22:49.334Z,8.28
2023-05-01T03:25:18.735Z,8.22
2023-05-01T03:27:49.691Z,8.12
2023-05-01T03:30:19.666Z,8.03
2023-05-01T03:32:48.947Z,8.00
2023-05-01T03:35:24.316Z,7.96
2023-05-01T03:37:54.972Z,7.88
2023-05-01T03:40:44.670Z,7.85
2023-05-01T03:43:32.073Z,7.87
2023-05-01T03:46:04.496Z,7.86
2023-05-01T03:48:33.732Z,7.84
2023-05-01T03:51:03.949Z,7.76
2023-05-01T03:53:34.636Z,7.84
2023-05-01T03:56:07.008Z,7.91
2023-05-01T03:58:36.659Z,7.98
2023-05-01T04:01:06.737Z,8.08
2023-05-01T04:03:40.080Z,8.15
2023-05-01T04:06:09.518Z,8.11
2023-05-01T04:08:40.056Z,8.22
2023-05-01T04:11:09.511Z,8.45
2023-05-01T04:13:38.611Z,8.45
2023-05-01T04:16:08.933Z,8.45
2023-05-01T04:18:38.096Z,8.45
2023-05-01T04:21:07.789Z,8.36
2023-05-01T04:23:42.757Z,8.36
2023-05-01T04:26:11.986Z,8.46
2023-05-01T04:28:41.038Z,8.55
2023-05-01T04:31:12.483Z,8.60
2023-05-01T04:33:41.712Z,8.70
2023-05-01T04:36:11.073Z,8.79
2023-05-01T04:38:44.997Z,8.91
2023-05-01T04:41:15.401Z,9.07
2023-05-01T04:43:44.645Z,9.21
2023-05-01T04:46:15.068Z,9.27
2023-05-01T04:48:44.473Z,9.40
2023-05-01T04:51:13.719Z,9.52
2023-05-01T04:53:42.993Z,9.64
2023-05-01T04:56:23.318Z,9.86
2023-05-01T04:58:56.587Z,9.99
2023-05-01T05:01:28.514Z,10.18
2023-05-01T05:03:58.732Z,10.34
2023-05-01T05:06:28.225Z,10.52
2023-05-01T05:08:58.081Z,10.74
2023-05-01T05:11:28.966Z,10.99
2023-05-01T05:14:20.756Z,11.26
2023-05-01T05:16:50.122Z,11.48
2023-05-01T05:19:19.318Z,11.66
2023-05-01T05:21:48.593Z,11.88
2023-05-01T05:24:17.903Z,12.18
2023-05-01T05:26:48.536Z,12.46
2023-05-01T05:29:17.768Z,12.65
2023-05-01T05:31:47.594Z,12.90
2023-05-01T05:34:17.720Z,13.02
2023-05-01T05:36:46.826Z,13.17
2023-05-01T05:39:23.917Z,13.32
2023-05-01T05:41:54.507Z,13.44
2023-05-01T05:44:23.900Z,13.54
2023-05-01T05:46:53.873Z,13.65
2023-05-01T05:49:30.951Z,13.73
2023-05-01T05:52:00.318Z,13.87
2023-05-01T05:54:29.496Z,14.00
2023-05-01T05:56:59.981Z,13.92
2023-05-01T05:59:30.103Z,14.18
2023-05-01T06:01:59.574Z,14.30
2023-05-01T06:04:28.761Z,14.31
2023-05-01T06:06:58.382Z,14.18
2023-05-01T06:09:27.600Z,14.01
2023-05-01T06:11:57.362Z,14.51
2023-05-01T06:14:28.005Z,14.72
2023-05-01T06:16:57.231Z,14.72
2023-05-01T06:19:26.596Z,15.01
2023-05-01T06:22:04.243Z,15.18
2023-05-01T06:24:39.968Z,15.32
2023-05-01T06:27:11.426Z,15.23
2023-05-01T06:29:42.271Z,15.10
2023-05-01T06:32:11.448Z,15.19
2023-05-01T06:34:41.279Z,15.43
2023-05-01T06:37:10.412Z,15.58
2023-05-01T06:39:39.670Z,15.79
2023-05-01T06:42:11.680Z,16.01
2023-05-01T06:44:43.804Z,16.17
2023-05-01T06:47:13.150Z,16.36
2023-05-01T06:49:43.912Z,16.51
2023-05-01T06:52:13.103Z,16.73
2023-05-01T06:54:42.336Z,16.82
2023-05-01T06:57:11.314Z,16.80
2023-05-01T06:59:40.585Z,16.84
2023-05-01T07:02:11.401Z,16.85
2023-05-01T07:04:42.085Z,17.08
2023-05-01T07:07:11.226Z,17.21
2023-05-01T07:09:40.237Z,17.31
2023-05-01T07:12:09.532Z,17.47
2023-05-01T07:14:38.585Z,17.69
2023-05-01T07:17:09.554Z,17.84
2023-05-01T07:19:40.209Z,18.02
2023-05-01T07:22:09.473Z,18.08
2023-05-01T07:24:38.596Z,18.17
2023-05-01T07:27:07.858Z,17.97
2023-05-01T07:29:40.292Z,18.15
2023-05-01T07:32:09.515Z,18.33
2023-05-01T07:34:40.248Z,18.47
2023-05-01T07:37:09.324Z,18.70
2023-05-01T07:39:38.438Z,18.84
2023-05-01T07:42:07.883Z,18.95
2023-05-01T07:44:37.032Z,18.96
2023-05-01T07:47:07.411Z,18.85
2023-05-01T07:49:41.096Z,19.18
2023-05-01T07:52:11.189Z,19.18
2023-05-01T07:54:40.885Z,19.26
2023-05-01T07:57:10.260Z,19.21
2023-05-01T07:59:39.378Z,19.06
2023-05-01T08:02:08.547Z,19.15
2023-05-01T08:04:37.899Z,19.30
2023-05-01T08:07:08.623Z,19.30
2023-05-01T08:09:37.887Z,19.56
2023-05-01T08:12:07.066Z,19.56
2023-05-01T08:14:36.358Z,19.67
2023-05-01T08:17:05.668Z,19.99
2023-05-01T08:19:35.200Z,20.11
2023-05-01T08:22:04.509Z,20.12
2023-05-01T08:24:35.074Z,20.35
2023-05-01T08:27:04.326Z,20.45
2023-05-01T08:29:33.452Z,20.67
2023-05-01T08:32:02.846Z,20.72
2023-05-01T08:34:31.846Z,20.79
2023-05-01T08:37:01.513Z,20.97
2023-05-01T08:39:30.867Z,20.70
2023-05-01T08:42:01.730Z,21.14
2023-05-01T08:44:32.638Z,21.32
2023-05-01T08:47:14.004Z,21.46
2023-05-01T08:49:44.292Z,21.44
2023-05-01T08:52:15.527Z,21.77
2023-05-01T08:54:47.094Z,21.96
2023-05-01T08:57:18.727Z,22.12
2023-05-01T08:59:51.046Z,22.07
2023-05-01T09:02:21.282Z,22.10
2023-05-01T09:04:52.689Z,21.89
2023-05-01T09:07:22.848Z,21.47
2023-05-01T09:09:53.405Z,21.72
2023-05-01T09:12:27.583Z,22.00
2023-05-01T09:14:58.198Z,21.49
2023-05-01T09:17:27.537Z,21.94
2023-05-01T09:19:57.051Z,22.09
2023-05-01T09:22:26.816Z,22.30
2023-05-01T09:24:57.949Z,22.64
2023-05-01T09:27:29.149Z,22.65
2023-05-01T09:29:58.486Z,22.43
2023-05-01T09:32:29.025Z,22.80
2023-05-01T09:35:10.919Z,22.48
2023-05-01T09:37:40.563Z,22.77
2023-05-01T09:40:11.925Z,22.84
2023-05-01T09:42:50.477Z,22.73
2023-05-01T09:45:20.775Z,23.18
2023-05-01T09:47:50.175Z,23.18
2023-05-01T09:50:31.585Z,23.71
2023-05-01T09:53:02.963Z,23.84
2023-05-01T09:55:32.403Z,23.81
2023-05-01T09:58:04.180Z,23.69
2023-05-01T10:00:33.772Z,23.03
2023-05-01T10:03:15.850Z,23.76
2023-05-01T10:05:45.538Z,23.84
2023-05-01T10:08:15.296Z,23.69
2023-05-01T10:10:45.156Z,23.40
2023-05-01T10:13:19.213Z,23.74
2023-05-01T10:15:49.052Z,23.57
2023-05-01T10:18:19.946Z,23.04
2023-05-01T10:20:49.576Z,22.62
2023-05-01T10:23:18.882Z,22.63
2023-05-01T10:25:52.612Z,22.39
2023-05-01T10:28:25.513Z,22.19
2023-05-01T10:30:55.255Z,21.86
2023-05-01T10:33:25.249Z,21.80
2023-05-01T10:36:01.106Z,21.99
2023-05-01T10:38:35.555Z,22.21
2023-05-01T10:41:06.508Z,22.22
2023-05-01T10:43:37.079Z,22.07
2023-05-01T10:46:29.989Z,22.34
2023-05-01T10:49:02.135Z,22.31
2023-05-01T10:51:31.785Z,22.46
2023-05-01T10:54:28.973Z,22.57
2023-05-01T10:57:01.535Z,22.73
2023-05-01T11:00:11.595Z,22.98
2023-05-01T11:02:41.537Z,23.25
2023-05-01T11:05:11.211Z,23.35
2023-05-01T11:07:40.995Z,23.57
2023-05-01T11:10:28.463Z,23.53
2023-05-01T11:12:57.555Z,23.41
2023-05-01T11:15:35.560Z,22.79
2023-05-01T11:18:06.516Z,22.77
2023-05-01T11:20:55.804Z,23.03
2023-05-01T11:23:25.967Z,23.00
2023-05-01T11:26:08.643Z,23.16
2023-05-01T11:28:40.081Z,23.28
2023-05-01T11:31:11.840Z,23.52
2023-05-01T11:33:41.468Z,23.02
2023-05-01T11:36:10.653Z,22.81
2023-05-01T11:38:40.298Z,23.02
2023-05-01T11:41:09.521Z,23.42
2023-05-01T11:43:52.259Z,23.83
2023-05-01T11:46:28.512Z,24.06
2023-05-01T11:48:58.381Z,24.37
2023-05-01T11:51:28.355Z,24.71
2023-05-01T11:54:01.448Z,24.48
2023-05-01T11:56:31.109Z,24.91
2023-05-01T11:59:02.371Z,25.06
2023-05-01T12:01:40.412Z,25.29
2023-05-01T12:04:10.534Z,25.58
2023-05-01T12:06:44.121Z,26.26
2023-05-01T12:09:18.861Z,26.60
2023-05-01T12:11:51.912Z,27.29
2023-05-01T12:14:24.707Z,27.22
2023-05-01T12:16:55.893Z,27.11
2023-05-01T12:19:25.325Z,26.49
2023-05-01T12:22:07.508Z,27.28
2023-05-01T12:24:37.974Z,27.43
2023-05-01T12:27:08.477Z,27.25
2023-05-01T12:29:44.979Z,27.95
2023-05-01T12:32:19.274Z,28.74
2023-05-01T12:34:49.686Z,29.10
2023-05-01T12:37:19.004Z,29.45
2023-05-01T12:39:53.599Z,28.52
2023-05-01T12:42:25.634Z,27.96
2023-05-01T12:45:02.405Z,27.82
2023-05-01T12:47:39.903Z,28.42
2023-05-01T12:50:13.509Z,28.10
2023-05-01T12:52:42.946Z,27.47
2023-05-01T12:55:13.080Z,27.26
2023-05-01T12:57:55.175Z,26.72
2023-05-01T13:00:28.618Z,27.13
2023-05-01T13:03:08.488Z,27.09
2023-05-01T13:05:52.094Z,26.59
2023-05-01T13:08:31.778Z,26.38
2023-05-01T13:11:03.246Z,26.13
2023-05-01T13:13:33.706Z,25.98
2023-05-01T13:16:12.836Z,25.00
2023-05-01T13:18:47.869Z,24.86
2023-05-01T13:21:19.245Z,25.05
2023-05-01T13:23:56.630Z,24.83
2023-05-01T13:26:30.656Z,24.91
2023-05-01T13:29:02.183Z,24.56
2023-05-01T13:31:32.072Z,24.26
2023-05-01T13:34:06.034Z,23.71
2023-05-01T13:36:35.762Z,23.16
2023-05-01T13:39:07.647Z,22.86
2023-05-01T13:41:36.888Z,22.52
2023-05-01T13:44:09.252Z,22.24
2023-05-01T13:46:38.923Z,22.07
2023-05-01T13:49:13.520Z,22.03
2023-05-01T13:51:44.136Z,21.78
2023-05-01T13:54:14.244Z,21.63
2023-05-01T13:56:43.585Z,21.38
2023-05-01T13:59:13.152Z,21.48
2023-05-01T14:01:47.746Z,21.29
2023-05-01T14:04:27.876Z,21.12
2023-05-01T14:06:58.761Z,20.80
2023-05-01T14:09:30.661Z,20.67
2023-05-01T14:11:59.943Z,20.71
2023-05-01T14:14:29.399Z,20.67
2023-05-01T14:16:58.526Z,20.66
2023-05-01T14:19:29.425Z,20.68
2023-05-01T14:21:58.749Z,20.74
2023-05-01T14:24:29.546Z,20.46
2023-05-01T14:26:59.305Z,20.58
2023-05-01T14:29:30.186Z,20.52
2023-05-01T14:32:05.521Z,20.38
2023-05-01T14:34:36.393Z,20.34
2023-05-01T14:37:05.874Z,20.34
2023-05-01T14:39:35.048Z,20.18
2023-05-01T14:42:07.241Z,19.96
2023-05-01T14:44:41.680Z,19.88
2023-05-01T14:47:11.498Z,19.93
2023-05-01T14:49:43.516Z,20.03
2023-05-01T14:52:14.484Z,19.89
2023-05-01T14:54:48.491Z,19.77
2023-05-01T14:57:20.149Z,19.78
2023-05-01T14:59:49.387Z,19.85
2023-05-01T15:02:18.741Z,19.71
2023-05-01T15:04:49.666Z,19.83
2023-05-01T15:07:19.133Z,19.86
2023-05-01T15:09:52.140Z,19.70
2023-05-01T15:12:21.366Z,19.81
2023-05-01T15:14:50.547Z,19.83
2023-05-01T15:17:19.657Z,19.96
2023-05-01T15:19:50.432Z,19.97
2023-05-01T15:22:19.674Z,19.96
2023-05-01T15:24:49.037Z,19.92
2023-05-01T15:27:18.629Z,19.87
2023-05-01T15:29:47.786Z,19.75
2023-05-01T15:32:17.235Z,19.68
2023-05-01T15:34:46.778Z,19.78
2023-05-01T15:37:17.441Z,19.70
2023-05-01T15:39:47.308Z,19.64
2023-05-01T15:42:16.468Z,19.59
2023-05-01T15:44:46.077Z,19.58
2023-05-01T15:47:15.273Z,19.46
2023-05-01T15:49:44.499Z,19.36
2023-05-01T15:52:13.789Z,19.17
2023-05-01T15:54:47.757Z,19.01
2023-05-01T15:57:17.974Z,18.98
2023-05-01T15:59:51.445Z,18.82
2023-05-01T16:02:20.812Z,18.71
2023-05-01T16:04:50.121Z,18.55
2023-05-01T16:07:19.262Z,18.56
2023-05-01T16:09:49.981Z,18.52
2023-05-01T16:12:19.355Z,18.48
2023-05-01T16:14:49.961Z,18.49
2023-05-01T16:17:21.031Z,18.44
2023-05-01T16:19:50.979Z,18.37
2023-05-01T16:22:20.731Z,18.37
2023-05-01T16:24:51.404Z,18.44
2023-05-01T16:27:20.705Z,18.42
2023-05-01T16:29:49.917Z,18.40
2023-05-01T16:32:21.055Z,18.43
2023-05-01T16:34:50.461Z,18.42
2023-05-01T16:37:28.240Z,18.34
2023-05-01T16:40:01.337Z,18.41
2023-05-01T16:42:32.640Z,18.38
2023-05-01T16:45:02.445Z,18.34
2023-05-01T16:47:34.077Z,18.22
2023-05-01T16:50:03.763Z,18.21
2023-05-01T16:52:36.276Z,18.09
2023-05-01T16:55:08.074Z,18.13
2023-05-01T16:57:37.227Z,18.03
2023-05-01T17:00:09.547Z,18.10
2023-05-01T17:02:39.908Z,18.14
2023-05-01T17:05:10.054Z,18.11
2023-05-01T17:07:39.261Z,18.04
2023-05-01T17:10:11.209Z,18.03
2023-05-01T17:12:40.295Z,17.90
2023-05-01T17:15:10.976Z,17.89
2023-05-01T17:17:40.178Z,17.82
2023-05-01T17:20:11.154Z,17.82
2023-05-01T17:22:40.483Z,17.72
2023-05-01T17:25:11.757Z,17.65
2023-05-01T17:27:40.967Z,17.62
2023-05-01T17:30:10.687Z,17.45
2023-05-01T17:32:39.954Z,17.50
2023-05-01T17:35:10.007Z,17.32
2023-05-01T17:37:40.108Z,17.19
2023-05-01T17:40:12.637Z,17.20
2023-05-01T17:42:42.203Z,17.12
2023-05-01T17:45:13.126Z,17.04
2023-05-01T17:47:43.194Z,16.87
2023-05-01T17:50:14.415Z,16.86
2023-05-01T17:52:45.540Z,16.65
2023-05-01T17:55:18.167Z,16.55
2023-05-01T17:57:48.888Z,16.43
2023-05-01T18:00:18.759Z,16.41
2023-05-01T18:02:49.433Z,16.26
2023-05-01T18:05:21.841Z,16.28
2023-05-01T18:07:51.907Z,16.19
2023-05-01T18:10:22.788Z,16.30
2023-05-01T18:12:52.425Z,16.04
2023-05-01T18:15:22.983Z,16.14
2023-05-01T18:17:52.599Z,16.02
2023-05-01T18:20:22.085Z,15.98
2023-05-01T18:22:51.558Z,15.96
2023-05-01T18:25:22.807Z,15.97
2023-05-01T18:27:53.190Z,15.84
2023-05-01T18:30:22.861Z,16.01
2023-05-01T18:32:52.437Z,15.94
2023-05-01T18:35:22.266Z,15.95
2023-05-01T18:37:51.913Z,15.88
2023-05-01T18:40:23.046Z,15.87
2023-05-01T18:42:52.753Z,15.93
2023-05-01T18:45:22.345Z,15.70
2023-05-01T18:47:51.654Z,15.82
2023-05-01T18:50:22.086Z,15.90
2023-05-01T18:52:51.480Z,15.95
2023-05-01T18:55:22.147Z,15.97
2023-05-01T18:57:51.495Z,15.89
2023-05-01T19:00:21.652Z,16.02
2023-05-01T19:02:52.269Z,16.09
2023-05-01T19:05:22.807Z,16.08
2023-05-01T19:07:55.411Z,16.05
2023-05-01T19:10:26.062Z,16.09
2023-05-01T19:12:55.406Z,16.09
2023-05-01T19:15:24.967Z,16.04
2023-05-01T19:17:54.422Z,16.05
2023-05-01T19:20:23.527Z,16.03
2023-05-01T19:22:53.170Z,15.97
2023-05-01T19:25:22.288Z,15.91
2023-05-01T19:27:52.985Z,15.87
2023-05-01T19:30:22.266Z,15.83
2023-05-01T19:32:52.241Z,15.75
2023-05-01T19:35:21.542Z,15.69
2023-05-01T19:37:56.247Z,15.58
2023-05-01T19:40:25.664Z,15.47
2023-05-01T19:42:56.319Z,15.33
2023-05-01T19:45:25.573Z,15.36
2023-05-01T19:47:54.912Z,15.18
2023-05-01T19:50:25.219Z,15.02
2023-05-01T19:52:54.615Z,14.86
2023-05-01T19:55:23.881Z,14.85
2023-05-01T19:57:53.504Z,14.68
2023-05-01T20:00:24.639Z,14.66
2023-05-01T20:02:53.957Z,14.57
2023-05-01T20:05:28.360Z,14.51
2023-05-01T20:07:58.620Z,14.49
2023-05-01T20:10:27.904Z,14.41
2023-05-01T20:12:57.060Z,14.21
2023-05-01T20:15:27.799Z,14.39
2023-05-01T20:17:58.701Z,14.47
2023-05-01T20:20:27.914Z,14.49
2023-05-01T20:23:10.925Z,14.40
2023-05-01T20:25:40.218Z,14.40
2023-05-01T20:28:10.431Z,14.37
2023-05-01T20:30:42.038Z,14.29
2023-05-01T20:33:12.026Z,14.26
2023-05-01T20:35:41.388Z,14.22
2023-05-01T20:38:10.710Z,14.19
2023-05-01T20:40:41.617Z,14.10
2023-05-01T20:43:11.678Z,14.08
2023-05-01T20:45:42.444Z,14.23
2023-05-01T20:48:11.922Z,14.15
2023-05-01T20:50:43.969Z,14.13
2023-05-01T20:53:13.108Z,14.11
2023-05-01T20:55:42.261Z,14.02
2023-05-01T20:58:11.581Z,13.98
2023-05-01T21:00:42.122Z,13.80
2023-05-01T21:03:11.629Z,13.81
2023-05-01T21:05:40.813Z,13.77
2023-05-01T21:08:09.955Z,13.71
2023-05-01T21:10:39.133Z,13.72
2023-05-01T21:13:08.666Z,13.64
2023-05-01T21:15:42.043Z,13.54
2023-05-01T21:18:13.548Z,13.37
2023-05-01T21:20:45.722Z,13.30
2023-05-01T21:23:16.698Z,13.42
2023-05-01T21:25:46.092Z,13.29
2023-05-01T21:28:16.071Z,13.18
2023-05-01T21:30:45.379Z,13.06
2023-05-01T21:33:17.559Z,13.19
2023-05-01T21:35:48.221Z,13.14
2023-05-01T21:38:18.065Z,13.13
2023-05-01T21:40:47.469Z,13.12
2023-05-01T21:43:16.645Z,13.09
2023-05-01T21:45:45.878Z,13.05
2023-05-01T21:48:17.589Z,13.10
2023-05-01T21:50:50.244Z,13.00
2023-05-01T21:53:19.581Z,12.96
2023-05-01T21:55:49.064Z,12.90
2023-05-01T21:58:18.296Z,12.71
2023-05-01T22:00:48.165Z,12.71
2023-05-01T22:03:20.274Z,12.64
2023-05-01T22:05:50.027Z,12.67
2023-05-01T22:08:19.565Z,12.51
2023-05-01T22:10:49.156Z,12.42
2023-05-01T22:13:18.172Z,12.46
2023-05-01T22:15:49.050Z,12.49
2023-05-01T22:18:19.875Z,12.36
2023-05-01T22:20:49.055Z,12.18
2023-05-01T22:23:18.232Z,12.21
2023-05-01T22:25:47.416Z,12.06
2023-05-01T22:28:17.901Z,12.19
2023-05-01T22:30:47.984Z,12.23
2023-05-01T22:33:18.647Z,12.17
2023-05-01T22:35:47.729Z,12.26
2023-05-01T22:38:16.926Z,12.35
2023-05-01T22:40:46.075Z,12.39
2023-05-01T22:43:15.704Z,12.36
2023-05-01T22:45:44.954Z,12.31
2023-05-01T22:48:14.212Z,12.28
2023-05-01T22:50:45.180Z,12.32
2023-05-01T22:53:14.305Z,12.27
2023-05-01T22:55:43.462Z,12.19
2023-05-01T22:58:12.528Z,12.23
2023-05-01T23:00:41.614Z,12.23
2023-05-01T23:03:10.879Z,12.19
2023-05-01T23:05:40.110Z,12.19
2023-05-01T23:08:10.653Z,12.12
2023-05-01T23:10:42.993Z,12.12
2023-05-01T23:13:19.195Z,12.08
2023-05-01T23:15:50.174Z,12.02
2023-05-01T23:18:24.673Z,12.07
2023-05-01T23:20:55.784Z,12.10
2023-05-01T23:23:30.234Z,12.01
2023-05-01T23:25:59.387Z,12.00
2023-05-01T23:28:29.601Z,11.84
2023-05-01T23:31:00.509Z,11.80
2023-05-01T23:33:38.076Z,11.77
2023-05-01T23:36:10.489Z,11.75
2023-05-01T23:38:41.224Z,11.70
2023-05-01T23:41:11.210Z,11.65
2023-05-01T23:43:41.120Z,11.62
2023-05-01T23:46:10.469Z,11.57
2023-05-01T23:48:39.557Z,11.49
2023-05-01T23:51:08.826Z,11.54
2023-05-01T23:53:37.862Z,11.44
2023-05-01T23:56:08.732Z,11.24
2023-05-01T23:58:37.789Z,11.24
